Time;durP1;ratioP1;P1;durP2;ratioP2;P2;SDS_P1;SDS_P2;PMS_P1;PMS_P2;Temp;Humidity;BMP_temperature;BMP_pressure;BME280_temperature;BME280_humidity;BME280_pressure;Samples;Min_cycle;Max_cycle;Signal;HPM_P1;HPM_P2
2022/12/31 11:25:25;;;;;;;1.40;1.30;;;12.20;99.90;;;;;;5713920;23;20926;-56
2022/12/31 11:28:04;;;;;;;2.50;2.30;;;12.30;99.90;;;;;;4942855;29;20429;-56
2022/12/31 11:31:07;;;;;;;7.03;5.53;;;12.30;99.90;;;;;;4943117;29;20989;-56
2022/12/31 11:33:56;;;;;;;1.87;1.73;;;12.40;99.90;;;;;;4938463;29;20442;-55
2022/12/31 11:36:41;;;;;;;1.77;1.67;;;12.50;99.90;;;;;;4939631;29;20454;-54
2022/12/31 11:39:45;;;;;;;1.63;1.53;;;12.50;99.90;;;;;;4953159;29;20516;-54
2022/12/31 11:42:24;;;;;;;1.83;1.73;;;12.60;99.90;;;;;;4925671;29;20448;-54
2022/12/31 11:45:13;;;;;;;1.77;1.50;;;12.70;99.90;;;;;;4937070;29;20550;-54
2022/12/31 11:48:17;;;;;;;1.50;1.40;;;12.80;95.00;;;;;;4934828;29;20937;-53
2022/12/31 11:51:27;;;;;;;1.83;1.60;;;12.90;72.00;;;;;;4955879;28;20417;-53
2022/12/31 11:54:11;;;;;;;1.60;1.50;;;12.90;44.70;;;;;;4927020;29;20492;-53
2022/12/31 11:56:40;;;;;;;1.57;1.47;;;13.00;26.00;;;;;;4951369;29;20467;-53
2022/12/31 11:59:12;;;;;;;1.80;1.70;;;13.00;4.00;;;;;;4939261;29;20449;-53
2022/12/31 12:02:00;;;;;;;2.00;1.80;;;13.10;1.00;;;;;;4944847;28;20524;-53
2022/12/31 12:04:26;;;;;;;1.60;1.50;;;13.10;1.00;;;;;;4947595;28;20496;-53
2022/12/31 12:06:52;;;;;;;1.50;1.40;;;13.10;1.00;;;;;;4950613;29;20469;-56
2022/12/31 12:09:30;;;;;;;1.40;1.30;;;13.20;1.00;;;;;;4947196;28;20441;-55
2022/12/31 12:12:02;;;;;;;1.13;1.13;;;13.30;1.00;;;;;;4943862;29;20178;-55
2022/12/31 12:14:40;;;;;;;1.70;1.37;;;13.40;1.00;;;;;;4933377;29;20464;-55
2022/12/31 12:17:08;;;;;;;1.20;1.20;;;13.50;1.00;;;;;;4920226;29;21160;-55
2022/12/31 12:19:40;;;;;;;1.20;1.10;;;13.60;1.00;;;;;;4931000;29;20440;-55
2022/12/31 12:22:19;;;;;;;2.00;1.60;;;13.60;1.00;;;;;;4931087;29;20454;-55
2022/12/31 12:25:01;;;;;;;1.47;1.17;;;13.60;1.00;;;;;;4933111;29;20488;-54
2022/12/31 12:27:30;;;;;;;1.40;1.30;;;13.70;1.00;;;;;;4932024;28;20501;-55
2022/12/31 12:29:55;;;;;;;2.30;1.23;;;13.90;1.00;;;;;;4933313;28;20437;-55
2022/12/31 12:32:23;;;;;;;2.63;1.20;;;14.00;99.90;;;;;;4930163;29;20426;-55
2022/12/31 12:34:49;;;;;;;1.10;1.10;;;14.10;99.90;;;;;;4930217;29;20198;-55
2022/12/31 12:37:28;;;;;;;1.20;1.10;;;14.00;99.90;;;;;;4931822;29;22256;-55
2022/12/31 12:39:56;;;;;;;1.20;1.10;;;13.90;99.90;;;;;;4933410;29;20446;-55
2022/12/31 12:42:22;;;;;;;1.20;1.10;;;13.90;99.90;;;;;;4940251;29;20944;-58
2022/12/31 12:44:58;;;;;;;1.70;1.10;;;13.90;99.90;;;;;;4932473;29;20564;-55
2022/12/31 12:47:25;;;;;;;1.20;1.10;;;13.80;99.90;;;;;;4936027;29;20209;-55
2022/12/31 12:49:53;;;;;;;1.10;1.00;;;13.90;99.90;;;;;;4932517;29;21247;-55
2022/12/31 12:52:46;;;;;;;1.27;1.10;;;13.90;99.90;;;;;;4930670;28;20430;-55
2022/12/31 12:55:18;;;;;;;2.50;1.10;;;13.90;99.90;;;;;;4930783;29;20471;-55
2022/12/31 12:57:50;;;;;;;1.07;1.03;;;13.80;99.90;;;;;;4931460;29;20532;-54
2022/12/31 13:00:20;;;;;;;1.27;1.20;;;13.80;99.90;;;;;;4930651;29;20446;-55
2022/12/31 13:02:54;;;;;;;1.67;1.13;;;13.80;99.90;;;;;;4938141;29;20818;-56
2022/12/31 13:05:29;;;;;;;1.03;1.00;;;13.80;99.90;;;;;;4940860;29;20489;-55
2022/12/31 13:08:20;;;;;;;1.63;1.20;;;13.90;99.90;;;;;;4925458;29;20455;-55
2022/12/31 13:10:51;;;;;;;1.30;1.20;;;13.90;99.90;;;;;;4931114;29;20441;-54
2022/12/31 13:13:42;;;;;;;1.90;1.43;;;13.90;99.90;;;;;;4936349;29;20461;-55
2022/12/31 13:16:31;;;;;;;1.70;1.60;;;13.90;99.90;;;;;;4927373;28;20785;-55
2022/12/31 13:19:42;;;;;;;1.30;1.20;;;13.90;99.90;;;;;;4928262;28;20500;-55
2022/12/31 13:22:12;;;;;;;1.60;1.50;;;13.80;99.90;;;;;;4893895;29;20464;-55
2022/12/31 13:24:56;;;;;;;1.53;1.33;;;13.90;99.90;;;;;;4882615;29;20486;-55
2022/12/31 13:27:43;;;;;;;2.53;1.70;;;13.80;99.90;;;;;;4920636;29;20816;-55
2022/12/31 13:30:19;;;;;;;1.63;1.50;;;13.90;99.90;;;;;;4935126;28;20441;-55
2022/12/31 13:33:16;;;;;;;0.93;0.90;;;13.90;99.90;;;;;;4924845;29;20442;-55
2022/12/31 13:35:51;;;;;;;1.17;1.10;;;13.90;99.90;;;;;;4944582;29;20870;-55
2022/12/31 13:38:22;;;;;;;1.27;1.17;;;13.90;99.90;;;;;;4943975;29;20962;-54
2022/12/31 13:41:07;;;;;;;2.77;1.57;;;13.90;99.90;;;;;;4927271;29;20520;-55
2022/12/31 13:44:12;;;;;;;1.83;1.60;;;13.90;99.90;;;;;;4941716;29;20476;-55
2022/12/31 13:47:00;;;;;;;1.40;1.20;;;13.80;99.90;;;;;;4937440;29;20481;-55
2022/12/31 13:49:31;;;;;;;3.80;2.80;;;13.80;1.00;;;;;;4952198;28;20441;-54
2022/12/31 13:52:00;;;;;;;1.63;1.53;;;13.80;1.00;;;;;;4950917;28;20500;-55
2022/12/31 13:54:56;;;;;;;1.53;1.27;;;13.80;1.00;;;;;;4956291;29;20405;-55
2022/12/31 13:57:40;;;;;;;1.23;1.13;;;13.70;1.00;;;;;;4948997;29;20810;-53
2022/12/31 14:00:19;;;;;;;2.20;1.30;;;13.80;1.00;;;;;;4937328;29;20492;-53
2022/12/31 14:03:03;;;;;;;1.50;1.40;;;13.80;1.00;;;;;;4937583;29;20804;-53
2022/12/31 14:05:37;;;;;;;2.53;1.30;;;13.80;1.00;;;;;;4941961;28;20600;-53
2022/12/31 14:08:05;;;;;;;2.07;1.70;;;13.80;1.00;;;;;;4938341;29;20445;-53
2022/12/31 14:10:47;;;;;;;2.80;2.53;;;13.80;1.00;;;;;;4920356;29;20442;-53
2022/12/31 14:13:30;;;;;;;2.17;1.80;;;13.80;1.00;;;;;;4934629;29;20464;-54
2022/12/31 14:16:10;;;;;;;2.20;2.00;;;13.70;1.00;;;;;;4936992;29;20855;-53
2022/12/31 14:19:10;;;;;;;1.83;1.73;;;13.80;1.00;;;;;;4936620;29;20520;-53
2022/12/31 14:21:50;;;;;;;2.80;2.03;;;13.70;1.00;;;;;;4935942;29;20475;-54
2022/12/31 14:24:44;;;;;;;3.33;2.90;;;13.70;1.00;;;;;;4925222;29;20592;-53
2022/12/31 14:27:37;;;;;;;2.90;2.33;;;13.70;1.00;;;;;;4936484;29;20461;-54
2022/12/31 14:30:12;;;;;;;3.70;2.43;;;13.70;1.00;;;;;;4923374;29;20521;-53
2022/12/31 14:33:04;;;;;;;10.00;5.23;;;13.80;1.00;;;;;;4938936;29;20433;-53
2022/12/31 14:35:48;;;;;;;2.30;2.10;;;13.70;1.00;;;;;;4926692;29;20488;-53
2022/12/31 14:38:29;;;;;;;1.83;1.73;;;13.80;1.00;;;;;;4954512;28;20420;-54
2022/12/31 14:41:12;;;;;;;4.13;2.20;;;13.80;1.00;;;;;;4941417;29;20966;-53
2022/12/31 14:44:17;;;;;;;3.17;2.30;;;13.80;1.00;;;;;;4933856;29;20496;-54
2022/12/31 14:46:55;;;;;;;3.43;2.30;;;13.80;1.00;;;;;;4950345;29;20529;-53
2022/12/31 14:49:58;;;;;;;2.40;2.20;;;13.80;1.00;;;;;;4948557;29;20508;-54
2022/12/31 14:52:30;;;;;;;2.40;2.20;;;13.80;1.00;;;;;;4947837;29;20461;-54
2022/12/31 14:55:21;;;;;;;2.60;2.10;;;13.90;1.00;;;;;;4952769;29;20449;-54
2022/12/31 14:57:48;;;;;;;2.83;2.00;;;13.90;1.00;;;;;;4943895;29;20441;-53
2022/12/31 15:00:33;;;;;;;3.83;2.37;;;13.90;1.00;;;;;;4950003;29;20507;-53
2022/12/31 15:03:01;;;;;;;6.00;2.40;;;13.90;1.00;;;;;;4954644;29;20498;-53
2022/12/31 15:05:30;;;;;;;2.73;2.53;;;13.90;1.00;;;;;;4949792;29;20465;-53
2022/12/31 15:08:07;;;;;;;3.20;2.20;;;13.90;1.00;;;;;;4941026;28;20457;-54
2022/12/31 15:10:39;;;;;;;3.47;2.60;;;13.90;1.00;;;;;;4946603;28;20444;-53
2022/12/31 15:13:25;;;;;;;3.93;3.17;;;13.90;1.00;;;;;;4953645;29;21055;-53
2022/12/31 15:16:09;;;;;;;3.70;3.20;;;13.90;1.00;;;;;;4948217;29;20437;-54
2022/12/31 15:18:53;;;;;;;6.40;3.30;;;13.80;1.00;;;;;;4937944;29;20442;-53
2022/12/31 15:21:51;;;;;;;4.70;2.93;;;13.80;1.00;;;;;;4939974;29;20771;-54
2022/12/31 15:24:25;;;;;;;4.83;3.53;;;13.70;1.00;;;;;;4935847;29;20482;-53
2022/12/31 15:26:54;;;;;;;4.03;3.60;;;13.70;1.00;;;;;;4934843;29;20482;-53
2022/12/31 15:29:31;;;;;;;4.97;3.20;;;13.70;1.00;;;;;;4954964;29;20796;-52
2022/12/31 15:31:59;;;;;;;3.50;2.53;;;13.70;1.00;;;;;;4953419;29;20440;-55
2022/12/31 15:34:33;;;;;;;7.77;4.50;;;13.70;1.00;;;;;;4940059;29;20441;-55
2022/12/31 15:37:03;;;;;;;6.10;4.77;;;13.70;1.00;;;;;;4953060;29;20455;-55
2022/12/31 15:39:31;;;;;;;3.83;3.10;;;13.70;1.00;;;;;;4950544;29;20449;-55
2022/12/31 15:41:58;;;;;;;3.20;2.90;;;13.70;1.00;;;;;;4952788;28;20445;-55
2022/12/31 15:45:01;;;;;;;5.07;2.77;;;13.70;1.00;;;;;;4944726;29;20859;-55
2022/12/31 15:47:30;;;;;;;3.43;2.53;;;13.60;1.00;;;;;;4934467;29;20449;-55
2022/12/31 15:50:01;;;;;;;3.30;2.30;;;13.60;1.00;;;;;;4939956;29;20533;-55
2022/12/31 15:52:32;;;;;;;3.77;3.10;;;13.50;1.00;;;;;;4936378;29;20932;-54
2022/12/31 15:54:59;;;;;;;3.10;2.60;;;13.50;1.00;;;;;;4943354;29;21009;-55
2022/12/31 15:57:27;;;;;;;3.40;3.00;;;13.50;1.00;;;;;;4937248;29;20447;-56
2022/12/31 16:00:01;;;;;;;2.83;2.60;;;13.50;1.00;;;;;;4945464;29;20457;-55
2022/12/31 16:02:27;;;;;;;3.10;2.90;;;13.60;1.00;;;;;;4946969;29;20443;-55
2022/12/31 16:04:54;;;;;;;3.90;2.87;;;13.50;1.00;;;;;;4952236;29;20540;-55
2022/12/31 16:07:21;;;;;;;3.70;2.80;;;13.50;1.00;;;;;;4932330;29;20562;-55
2022/12/31 16:09:51;;;;;;;6.20;3.10;;;13.50;1.00;;;;;;4935154;29;20949;-55
2022/12/31 16:12:24;;;;;;;5.13;3.30;;;13.50;1.00;;;;;;4935355;29;20474;-55
2022/12/31 16:14:52;;;;;;;5.83;3.47;;;13.40;1.00;;;;;;4940063;29;20436;-55
2022/12/31 16:17:38;;;;;;;3.70;2.77;;;13.40;1.00;;;;;;4935761;29;20452;-56
2022/12/31 16:20:26;;;;;;;3.60;3.27;;;13.40;1.00;;;;;;4942431;29;20791;-55
2022/12/31 16:22:57;;;;;;;6.13;4.30;;;13.30;1.00;;;;;;4942791;29;21001;-55
2022/12/31 16:25:24;;;;;;;11.73;8.70;;;13.30;1.00;;;;;;4952082;29;20499;-55
2022/12/31 16:27:51;;;;;;;4.73;4.27;;;13.30;1.00;;;;;;4931489;29;21270;-56
2022/12/31 16:30:25;;;;;;;5.83;4.60;;;13.30;1.00;;;;;;4950569;28;20588;-55
2022/12/31 16:32:52;;;;;;;4.67;3.70;;;13.20;1.00;;;;;;4923431;29;20453;-59
2022/12/31 16:35:30;;;;;;;5.87;4.50;;;13.30;1.00;;;;;;4948848;29;20451;-56
2022/12/31 16:38:15;;;;;;;4.30;3.90;;;13.20;1.00;;;;;;4945136;29;20445;-55
2022/12/31 16:40:51;;;;;;;5.13;4.17;;;13.20;1.00;;;;;;4938903;29;20456;-55
2022/12/31 16:43:27;;;;;;;7.80;4.67;;;13.20;1.00;;;;;;4945607;29;20450;-55
2022/12/31 16:46:05;;;;;;;10.67;7.30;;;13.20;1.00;;;;;;4951425;28;20440;-56
2022/12/31 16:48:31;;;;;;;10.40;6.00;;;13.20;1.00;;;;;;4954046;29;20528;-56
2022/12/31 16:50:57;;;;;;;7.17;4.93;;;13.10;1.00;;;;;;4953588;28;21245;-56
2022/12/31 16:53:25;;;;;;;7.00;6.10;;;13.10;1.00;;;;;;4953463;29;20209;-56
2022/12/31 16:56:04;;;;;;;9.80;6.63;;;13.10;1.00;;;;;;4952918;28;20436;-56
2022/12/31 16:58:34;;;;;;;14.20;10.80;;;13.10;1.00;;;;;;4953354;29;20456;-55
2022/12/31 17:01:11;;;;;;;24.57;15.90;;;13.10;1.00;;;;;;4953518;28;20464;-56
2022/12/31 17:03:41;;;;;;;26.13;19.03;;;13.10;1.00;;;;;;4953276;29;20468;-55
2022/12/31 17:06:08;;;;;;;25.40;15.70;;;13.00;1.10;;;;;;4935924;29;20438;-55
2022/12/31 17:09:03;;;;;;;9.20;7.60;;;13.00;10.30;;;;;;4953049;28;20437;-55
2022/12/31 17:11:41;;;;;;;11.63;8.10;;;13.00;14.40;;;;;;4953620;29;20418;-56
2022/12/31 17:14:07;;;;;;;19.30;11.73;;;13.00;16.10;;;;;;4953165;29;20421;-56
2022/12/31 17:16:43;;;;;;;29.23;16.20;;;13.00;20.20;;;;;;4953448;29;20413;-56
2022/12/31 17:19:30;;;;;;;20.27;13.63;;;12.90;21.50;;;;;;4953204;29;20608;-55
2022/12/31 17:21:56;;;;;;;13.77;8.53;;;12.90;25.50;;;;;;4934936;29;20441;-55
2022/12/31 17:24:22;;;;;;;25.03;17.60;;;12.90;34.40;;;;;;4933890;29;20861;-55
2022/12/31 17:26:50;;;;;;;19.47;13.00;;;12.90;32.40;;;;;;4933993;29;20236;-56
2022/12/31 17:29:21;;;;;;;25.07;17.70;;;12.90;34.70;;;;;;4940613;29;20915;-55
2022/12/31 17:32:20;;;;;;;20.40;13.67;;;12.90;40.40;;;;;;4952933;29;20425;-55
2022/12/31 17:34:50;;;;;;;15.67;11.77;;;12.90;48.30;;;;;;4953057;28;20429;-55
2022/12/31 17:37:25;;;;;;;16.57;10.80;;;13.00;50.90;;;;;;4953003;28;20966;-56
2022/12/31 17:39:52;;;;;;;19.27;13.90;;;13.00;52.50;;;;;;4953065;29;20428;-55
2022/12/31 17:42:29;;;;;;;23.30;15.13;;;13.00;54.80;;;;;;4952862;29;20781;-56
2022/12/31 17:45:00;;;;;;;19.37;12.43;;;12.90;61.80;;;;;;4953057;29;20461;-55
2022/12/31 17:47:34;;;;;;;24.73;13.80;;;12.90;74.30;;;;;;4952813;28;20426;-56
2022/12/31 17:50:08;;;;;;;23.90;14.80;;;12.90;90.20;;;;;;4952932;29;20743;-56
2022/12/31 17:52:34;;;;;;;36.73;21.27;;;12.90;94.20;;;;;;4953251;29;20412;-56
2022/12/31 17:54:59;;;;;;;65.80;39.00;;;12.80;99.90;;;;;;4952694;29;20423;-56
2022/12/31 17:57:26;;;;;;;43.47;28.13;;;12.80;99.90;;;;;;4952954;29;20205;-56
2022/12/31 17:59:52;;;;;;;38.03;22.57;;;12.70;99.90;;;;;;4952642;29;20185;-56
2022/12/31 18:02:18;;;;;;;24.13;15.70;;;12.70;99.90;;;;;;4952711;28;20914;-56
2022/12/31 18:04:44;;;;;;;28.67;24.13;;;12.70;99.90;;;;;;4935658;29;20487;-55
2022/12/31 18:07:10;;;;;;;21.03;13.90;;;12.80;99.90;;;;;;4952816;29;20171;-56
2022/12/31 18:09:36;;;;;;;18.03;12.40;;;12.90;99.90;;;;;;4953182;29;20421;-56
2022/12/31 18:12:04;;;;;;;21.33;12.50;;;13.00;99.90;;;;;;4954164;28;20174;-56
2022/12/31 18:14:30;;;;;;;20.20;12.97;;;13.10;99.90;;;;;;4956152;29;20507;-55
2022/12/31 18:16:55;;;;;;;16.30;11.17;;;13.10;99.90;;;;;;4956435;29;20420;-56
2022/12/31 18:19:21;;;;;;;23.17;12.70;;;13.20;99.90;;;;;;4956526;28;20231;-55
2022/12/31 18:21:47;;;;;;;21.17;11.77;;;13.30;99.90;;;;;;4939346;29;20201;-55
2022/12/31 18:24:15;;;;;;;22.73;12.90;;;13.40;99.90;;;;;;4937034;28;20294;-56
2022/12/31 18:26:41;;;;;;;14.70;9.77;;;13.40;99.90;;;;;;4936676;29;20222;-55
2022/12/31 18:29:16;;;;;;;12.77;8.17;;;13.50;99.90;;;;;;4937032;29;20469;-55
2022/12/31 18:31:45;;;;;;;21.87;9.80;;;13.60;99.90;;;;;;4936718;29;20170;-56
2022/12/31 18:34:13;;;;;;;11.30;6.87;;;13.60;99.90;;;;;;4936661;29;20504;-55
2022/12/31 18:36:39;;;;;;;18.10;7.67;;;13.70;85.70;;;;;;4936745;29;20418;-55
2022/12/31 18:39:05;;;;;;;16.60;8.73;;;13.80;18.80;;;;;;4919421;29;20422;-55
2022/12/31 18:41:50;;;;;;;16.83;10.20;;;13.80;1.00;;;;;;4936495;29;20430;-55
2022/12/31 18:44:15;;;;;;;76.30;54.77;;;13.80;1.00;;;;;;4936544;29;20582;-54
2022/12/31 18:46:41;;;;;;;28.57;19.17;;;13.80;1.00;;;;;;4936565;29;20394;-55
2022/12/31 18:49:08;;;;;;;32.80;18.80;;;13.80;1.00;;;;;;4943254;28;20178;-55
2022/12/31 18:51:34;;;;;;;29.77;16.40;;;13.80;1.00;;;;;;4956133;29;20766;-54
2022/12/31 18:54:00;;;;;;;21.87;13.07;;;13.80;1.00;;;;;;4955684;29;20445;-55
2022/12/31 18:56:26;;;;;;;30.80;16.83;;;13.80;1.00;;;;;;4955354;28;20519;-52
2022/12/31 18:58:52;;;;;;;24.40;13.80;;;13.80;1.00;;;;;;4955534;28;20410;-53
2022/12/31 19:01:37;;;;;;;28.03;13.73;;;13.80;1.00;;;;;;4955798;29;20225;-53
2022/12/31 19:04:15;;;;;;;20.30;13.10;;;13.80;1.00;;;;;;4955206;28;20970;-53
2022/12/31 19:06:41;;;;;;;21.80;11.40;;;13.80;1.00;;;;;;4955594;29;20402;-53
2022/12/31 19:09:07;;;;;;;24.67;14.70;;;13.80;1.00;;;;;;4955393;28;20413;-54
2022/12/31 19:11:34;;;;;;;22.20;13.80;;;13.80;1.00;;;;;;4955339;29;20841;-52
2022/12/31 19:14:12;;;;;;;49.30;33.93;;;13.80;1.00;;;;;;4955340;29;20188;-53
2022/12/31 19:16:38;;;;;;;33.07;20.43;;;13.80;1.00;;;;;;4946112;28;20826;-53
2022/12/31 19:19:03;;;;;;;36.00;19.80;;;13.80;1.00;;;;;;4955219;29;20405;-53
2022/12/31 19:21:29;;;;;;;35.47;19.00;;;13.80;1.00;;;;;;4955384;29;20568;-53
2022/12/31 19:23:55;;;;;;;38.13;25.27;;;13.70;1.00;;;;;;4954024;28;20233;-53
2022/12/31 19:26:21;;;;;;;33.23;19.80;;;13.70;1.00;;;;;;4955044;28;20265;-51
2022/12/31 19:28:48;;;;;;;27.40;17.77;;;13.80;1.00;;;;;;4955041;29;20221;-52
2022/12/31 19:31:15;;;;;;;26.37;13.40;;;13.90;1.00;;;;;;4937615;29;20505;-52
2022/12/31 19:33:41;;;;;;;27.70;14.70;;;13.90;1.00;;;;;;4954892;29;20406;-52
2022/12/31 19:36:13;;;;;;;23.90;10.37;;;13.90;1.00;;;;;;4954850;29;20398;-52
2022/12/31 19:38:39;;;;;;;15.27;9.60;;;14.00;99.90;;;;;;4954710;29;20573;-52
2022/12/31 19:41:08;;;;;;;17.60;10.23;;;14.00;99.90;;;;;;4954869;28;20421;-52
2022/12/31 19:43:33;;;;;;;22.07;13.80;;;14.00;99.90;;;;;;4954646;29;20182;-52
2022/12/31 19:46:02;;;;;;;18.97;12.93;;;13.90;99.90;;;;;;4954469;29;20884;-53
2022/12/31 19:48:28;;;;;;;26.60;13.70;;;13.90;99.90;;;;;;4954728;29;20181;-51
2022/12/31 19:50:54;;;;;;;17.30;9.80;;;13.90;99.90;;;;;;4954532;28;20826;-51
2022/12/31 19:53:23;;;;;;;20.50;11.10;;;14.00;99.90;;;;;;4954614;29;20472;-52
2022/12/31 19:55:50;;;;;;;12.40;9.20;;;14.00;99.90;;;;;;4954482;29;20636;-51
2022/12/31 19:58:18;;;;;;;16.70;10.40;;;14.00;99.90;;;;;;4954514;28;20425;-51
2022/12/31 20:00:44;;;;;;;18.63;9.43;;;14.10;99.90;;;;;;4954443;29;20412;-52
2022/12/31 20:03:11;;;;;;;17.23;11.47;;;14.10;99.90;;;;;;4954217;29;20417;-51
2022/12/31 20:05:36;;;;;;;25.90;10.00;;;14.10;72.80;;;;;;4953929;29;20464;-51
2022/12/31 20:08:02;;;;;;;23.87;13.80;;;14.10;43.50;;;;;;4954265;29;20473;-51
2022/12/31 20:10:28;;;;;;;14.63;10.40;;;14.10;4.80;;;;;;4954813;29;20189;-52
2022/12/31 20:12:53;;;;;;;21.47;12.00;;;14.20;1.00;;;;;;4936998;29;20710;-51
2022/12/31 20:15:19;;;;;;;17.53;11.27;;;14.20;1.00;;;;;;4944262;29;20276;-51
2022/12/31 20:17:44;;;;;;;15.57;10.37;;;14.30;1.00;;;;;;4934757;29;20182;-51
2022/12/31 20:20:10;;;;;;;34.97;21.33;;;14.30;1.00;;;;;;4943210;28;20221;-51
2022/12/31 20:22:37;;;;;;;26.03;11.70;;;14.30;1.00;;;;;;4968372;28;20187;-51
2022/12/31 20:25:04;;;;;;;43.27;24.30;;;14.30;1.00;;;;;;4935180;29;20621;-51
2022/12/31 20:27:29;;;;;;;80.97;55.87;;;14.30;99.90;;;;;;4950571;29;20919;-51
2022/12/31 20:29:55;;;;;;;21.40;14.27;;;14.40;99.90;;;;;;4934483;29;20422;-53
2022/12/31 20:32:20;;;;;;;25.40;16.40;;;14.40;1.00;;;;;;4949962;29;20706;-51
2022/12/31 20:34:46;;;;;;;26.90;17.27;;;14.50;1.00;;;;;;4951807;28;20193;-55
2022/12/31 20:37:12;;;;;;;40.77;27.80;;;14.50;1.00;;;;;;4948216;29;20206;-51
2022/12/31 20:39:38;;;;;;;22.47;13.50;;;14.50;1.00;;;;;;4952568;29;20194;-52
2022/12/31 20:42:03;;;;;;;14.83;8.30;;;14.50;1.00;;;;;;4952196;29;20186;-51
2022/12/31 20:44:29;;;;;;;15.97;6.63;;;14.50;99.90;;;;;;4949673;28;20213;-51
2022/12/31 20:46:54;;;;;;;11.00;7.07;;;14.60;99.90;;;;;;4925405;29;20222;-51
2022/12/31 20:49:20;;;;;;;20.03;7.80;;;14.60;1.00;;;;;;4942968;29;20186;-51
2022/12/31 20:51:46;;;;;;;30.87;19.40;;;14.60;1.00;;;;;;4936219;29;20327;-51
2022/12/31 20:54:11;;;;;;;21.87;11.17;;;14.60;1.00;;;;;;4935280;29;20201;-51
2022/12/31 20:56:39;;;;;;;22.33;15.97;;;14.60;99.90;;;;;;4933543;29;20200;-51
2022/12/31 20:59:06;;;;;;;24.33;16.00;;;14.60;99.90;;;;;;4933216;29;20181;-51
2022/12/31 21:01:31;;;;;;;18.50;10.80;;;14.60;1.00;;;;;;4945798;29;20442;-52
2022/12/31 21:03:59;;;;;;;28.57;14.97;;;14.50;1.00;;;;;;4942493;29;20515;-51
2022/12/31 21:06:24;;;;;;;17.43;8.60;;;14.60;99.90;;;;;;4946473;29;20583;-51
2022/12/31 21:08:50;;;;;;;9.53;5.67;;;14.60;99.90;;;;;;4914693;29;20445;-51
2022/12/31 21:14:01;;;;;;;16.33;10.17;;;14.70;99.90;;;;;;4938544;29;20230;-50
2022/12/31 21:16:27;;;;;;;15.23;9.60;;;14.70;1.00;;;;;;4940195;29;20466;-51
2022/12/31 21:18:53;;;;;;;9.80;7.20;;;14.70;99.90;;;;;;4942433;28;20449;-51
2022/12/31 21:21:19;;;;;;;14.80;7.10;;;14.70;99.90;;;;;;4948530;28;20452;-51
2022/12/31 21:23:44;;;;;;;23.87;15.53;;;14.70;52.10;;;;;;4949672;29;20204;-49
2022/12/31 21:26:10;;;;;;;13.50;5.80;;;14.80;1.00;;;;;;4951672;29;20473;-50
2022/12/31 21:28:36;;;;;;;9.77;5.03;;;14.70;99.90;;;;;;4949267;28;20257;-49
2022/12/31 21:31:04;;;;;;;11.23;6.27;;;14.80;1.00;;;;;;4933930;29;20204;-51
2022/12/31 21:33:30;;;;;;;28.63;13.00;;;14.80;99.90;;;;;;4933129;29;20316;-50
2022/12/31 21:35:56;;;;;;;10.93;6.33;;;14.80;1.00;;;;;;4933185;29;20454;-50
2022/12/31 21:38:22;;;;;;;8.27;4.90;;;14.90;1.00;;;;;;4916367;29;20213;-51
2022/12/31 21:40:47;;;;;;;13.17;5.37;;;14.90;1.00;;;;;;4933484;29;20214;-50
2022/12/31 21:43:14;;;;;;;9.13;4.20;;;14.90;99.90;;;;;;4933511;29;20186;-51
2022/12/31 21:45:40;;;;;;;13.00;6.60;;;14.90;1.00;;;;;;4933347;29;20210;-50
2022/12/31 21:48:18;;;;;;;14.03;5.70;;;14.90;1.00;;;;;;4952117;29;20560;-50
2022/12/31 21:50:49;;;;;;;13.33;6.70;;;14.90;99.90;;;;;;4953182;28;20433;-51
2022/12/31 21:53:16;;;;;;;12.03;6.93;;;15.00;1.00;;;;;;4937305;29;20909;-50
2022/12/31 21:58:26;;;;;;;14.33;5.60;;;15.00;1.00;;;;;;4936937;29;20464;-50
2022/12/31 22:03:35;;;;;;;8.70;5.77;;;15.00;1.00;;;;;;4937561;29;20182;-50
2022/12/31 22:06:15;;;;;;;15.77;6.53;;;15.00;1.00;;;;;;4942645;29;20442;-53
2022/12/31 22:08:46;;;;;;;12.83;5.47;;;15.00;1.00;;;;;;4936715;29;20166;-50
2022/12/31 22:11:12;;;;;;;11.70;5.70;;;15.00;1.00;;;;;;4941190;29;20483;-50
2022/12/31 22:13:38;;;;;;;14.20;8.63;;;15.00;1.00;;;;;;4936491;29;20450;-50
2022/12/31 22:16:04;;;;;;;15.27;7.90;;;15.00;1.00;;;;;;4936806;29;20488;-50
2022/12/31 22:18:32;;;;;;;13.57;5.57;;;15.10;1.00;;;;;;4936350;29;20198;-50
2022/12/31 22:21:17;;;;;;;13.00;5.73;;;15.00;1.00;;;;;;4936794;29;20880;-50
2022/12/31 22:23:43;;;;;;;9.10;5.03;;;15.10;1.00;;;;;;4939058;29;20483;-50
2022/12/31 22:26:12;;;;;;;8.43;5.40;;;15.10;1.00;;;;;;4940340;29;20533;-50
2022/12/31 22:28:39;;;;;;;9.40;5.17;;;15.10;1.00;;;;;;4952354;28;20464;-49
2022/12/31 22:31:05;;;;;;;12.27;5.43;;;15.10;1.00;;;;;;4947321;28;20446;-50
2022/12/31 22:33:31;;;;;;;10.33;5.93;;;15.20;1.00;;;;;;4936319;29;20461;-59
2022/12/31 22:36:02;;;;;;;12.07;5.40;;;15.20;1.00;;;;;;4939694;29;20445;-51
2022/12/31 22:38:29;;;;;;;11.63;4.70;;;15.20;1.00;;;;;;4955727;29;20774;-50
2022/12/31 22:41:21;;;;;;;8.87;5.00;;;15.10;1.00;;;;;;4950687;28;20945;-50
2022/12/31 22:43:49;;;;;;;7.10;4.20;;;15.10;1.00;;;;;;4933597;29;20967;-49
2022/12/31 22:46:18;;;;;;;8.10;4.40;;;15.10;1.00;;;;;;4939160;29;20446;-50
2022/12/31 22:48:44;;;;;;;8.50;4.53;;;15.20;1.00;;;;;;4918756;29;21344;-50
2022/12/31 22:51:14;;;;;;;9.73;4.63;;;15.20;1.00;;;;;;4940577;29;20457;-50
2022/12/31 22:53:42;;;;;;;13.33;5.20;;;15.20;1.00;;;;;;4938488;29;20640;-50
2022/12/31 22:56:08;;;;;;;15.30;5.60;;;15.30;1.00;;;;;;4938567;29;20438;-50
2022/12/31 22:58:35;;;;;;;22.50;9.23;;;15.40;1.00;;;;;;4942006;29;20943;-50
2022/12/31 23:01:05;;;;;;;37.17;16.67;;;15.30;1.00;;;;;;4943325;29;20486;-51
2022/12/31 23:03:30;;;;;;;82.37;51.30;;;15.30;1.00;;;;;;4935096;29;20450;-50
2022/12/31 23:05:56;;;;;;;130.53;83.47;;;15.30;1.00;;;;;;4952529;29;20476;-49
2022/12/31 23:08:21;;;;;;;117.90;73.53;;;15.30;1.00;;;;;;4930169;29;20197;-50
2022/12/31 23:11:04;;;;;;;142.40;72.90;;;15.30;1.00;;;;;;4952855;28;20220;-54
2022/12/31 23:24:13;;;;;;;50.20;30.17;;;15.40;1.00;;;;;;4959976;28;20551;-49
2022/12/31 23:26:39;;;;;;;32.33;18.00;;;15.50;1.00;;;;;;4955223;28;20460;-48
2022/12/31 23:29:04;;;;;;;40.10;20.90;;;15.50;1.00;;;;;;4955254;29;20893;-48
2022/12/31 23:31:30;;;;;;;37.90;23.03;;;15.50;1.00;;;;;;4953615;29;20245;-49
2022/12/31 23:33:55;;;;;;;41.97;24.60;;;15.50;1.00;;;;;;4955306;29;20659;-49
2022/12/31 23:36:21;;;;;;;36.03;16.77;;;15.50;1.00;;;;;;4955199;29;20723;-48
2022/12/31 23:38:49;;;;;;;31.03;14.43;;;15.40;1.00;;;;;;4937902;29;20230;-48
2022/12/31 23:41:18;;;;;;;29.70;12.20;;;15.50;1.00;;;;;;4928807;29;20449;-48
2022/12/31 23:43:43;;;;;;;29.60;13.90;;;15.50;1.00;;;;;;4949972;29;20997;-48
2022/12/31 23:46:10;;;;;;;22.43;11.13;;;15.60;1.00;;;;;;4937504;29;20624;-49
2022/12/31 23:48:36;;;;;;;23.43;13.13;;;15.60;1.00;;;;;;4949060;29;21058;-48
2022/12/31 23:51:01;;;;;;;21.30;11.50;;;15.60;1.00;;;;;;4935713;29;20496;-48
2022/12/31 23:53:27;;;;;;;21.57;11.27;;;15.50;1.00;;;;;;4952896;29;20197;-48
2022/12/31 23:55:52;;;;;;;26.37;11.10;;;15.50;1.00;;;;;;4946903;29;20181;-48
2022/12/31 23:58:19;;;;;;;15.83;7.80;;;15.50;1.00;;;;;;4949990;29;20196;-48
